Time;durP1;ratioP1;P1;durP2;ratioP2;P2;SDS_P1;SDS_P2;PMS_P1;PMS_P2;Temp;Humidity;BMP_temperature;BMP_pressure;BME280_temperature;BME280_humidity;BME280_pressure;Samples;Min_cycle;Max_cycle;Signal;HPM_P1;HPM_P2
2022/01/25 00:26:31;;;;;;;63.83;34.03;;;4.50;99.90;;;;;;4974811;28;20138;-47
2022/01/25 00:29:06;;;;;;;66.07;35.25;;;4.50;99.90;;;;;;4974221;28;20059;-47
2022/01/25 00:31:35;;;;;;;63.88;34.90;;;4.50;99.90;;;;;;4973880;28;20046;-47
2022/01/25 00:34:02;;;;;;;66.10;36.17;;;4.50;99.90;;;;;;4973866;28;20035;-47
2022/01/25 00:36:28;;;;;;;66.63;35.13;;;4.50;99.90;;;;;;4974007;28;20524;-50
2022/01/25 00:38:55;;;;;;;62.03;34.50;;;4.50;99.90;;;;;;4974856;28;20101;-47
2022/01/25 00:41:22;;;;;;;67.75;36.75;;;5.10;99.90;;;;;;4974170;28;20384;-47
2022/01/25 00:43:50;;;;;;;62.00;33.83;;;4.50;99.90;;;;;;4973888;28;20045;-48
2022/01/25 00:46:17;;;;;;;62.35;34.00;;;4.50;99.90;;;;;;4974046;28;20049;-47
2022/01/25 00:48:46;;;;;;;65.85;34.35;;;4.50;99.90;;;;;;4973933;28;20495;-47
2022/01/25 00:56:30;;;;;;;60.80;33.17;;;4.50;99.90;;;;;;4973808;28;20049;-47
2022/01/25 00:58:57;;;;;;;63.90;33.92;;;4.50;99.90;;;;;;4974023;28;20038;-47
2022/01/25 01:01:23;;;;;;;62.90;33.58;;;4.50;99.90;;;;;;4973839;28;20046;-47
2022/01/25 01:03:49;;;;;;;60.75;32.95;;;4.50;99.90;;;;;;4972695;28;20035;-47
2022/01/25 01:06:16;;;;;;;64.47;35.22;;;4.40;99.90;;;;;;4973955;28;20161;-48
2022/01/25 01:08:42;;;;;;;65.57;34.78;;;4.40;99.90;;;;;;4973805;28;20042;-48
2022/01/25 01:11:12;;;;;;;66.85;35.30;;;4.40;99.90;;;;;;4972098;28;20427;-48
2022/01/25 01:13:56;;;;;;;70.82;37.47;;;4.40;99.90;;;;;;4979623;28;20047;-48
2022/01/25 01:16:48;;;;;;;67.55;36.45;;;4.40;99.90;;;;;;4977574;28;20451;-48
2022/01/25 01:38:40;;;;;;;71.25;37.65;;;4.40;99.90;;;;;;4980654;28;20134;-48
2022/01/25 01:43:44;;;;;;;67.70;36.10;;;4.40;99.90;;;;;;4962911;28;20105;-48
2022/01/25 01:48:51;;;;;;;67.40;35.92;;;4.40;99.90;;;;;;4972856;28;20402;-49
2022/01/25 01:51:28;;;;;;;72.70;38.70;;;4.40;99.90;;;;;;4980065;28;20089;-48
2022/01/25 01:53:57;;;;;;;74.85;37.22;;;4.40;99.90;;;;;;4985409;28;20055;-48
2022/01/25 01:56:23;;;;;;;71.25;36.42;;;4.40;99.90;;;;;;4973849;28;20522;-48
2022/01/25 01:58:51;;;;;;;72.60;37.28;;;4.40;99.90;;;;;;4973022;28;20507;-49
2022/01/25 02:01:17;;;;;;;78.80;38.20;;;4.40;99.90;;;;;;4973404;28;20046;-47
2022/01/25 02:03:43;;;;;;;70.85;37.15;;;4.40;99.90;;;;;;4971757;28;20035;-48
2022/01/25 02:06:09;;;;;;;68.43;35.88;;;4.40;99.90;;;;;;4971679;28;20042;-48
2022/01/25 02:08:35;;;;;;;73.10;37.83;;;4.30;99.90;;;;;;4972498;28;20070;-48
2022/01/25 02:11:02;;;;;;;79.97;39.63;;;4.30;99.90;;;;;;4972814;28;20522;-49
2022/01/25 02:13:28;;;;;;;71.82;37.40;;;4.30;99.90;;;;;;4962860;28;20480;-48
2022/01/25 02:15:56;;;;;;;72.57;36.83;;;4.30;99.90;;;;;;4969050;28;20047;-49
2022/01/25 02:23:36;;;;;;;71.38;36.83;;;4.30;99.90;;;;;;4972357;28;20051;-48
2022/01/25 02:26:04;;;;;;;72.80;37.55;;;4.30;99.90;;;;;;4972658;28;20487;-49
2022/01/25 02:28:32;;;;;;;73.50;37.25;;;4.40;99.90;;;;;;4971827;28;20051;-50
2022/01/25 02:30:58;;;;;;;79.22;38.20;;;4.40;99.90;;;;;;4979212;28;20040;-49
2022/01/25 02:33:24;;;;;;;73.57;37.95;;;4.30;99.90;;;;;;4968099;28;20039;-48
2022/01/25 02:35:50;;;;;;;74.70;38.00;;;4.30;99.90;;;;;;4970430;28;20034;-49
2022/01/25 02:38:25;;;;;;;74.78;37.85;;;4.30;99.90;;;;;;4972863;28;20035;-49
2022/01/25 02:40:51;;;;;;;73.82;38.50;;;4.30;99.90;;;;;;4971204;28;20128;-51
2022/01/25 02:43:19;;;;;;;77.07;38.45;;;4.30;99.90;;;;;;4972065;28;20523;-50
2022/01/25 02:46:17;;;;;;;74.30;37.95;;;4.30;99.90;;;;;;4967432;28;20082;-51
2022/01/25 02:48:53;;;;;;;79.47;39.60;;;4.20;99.90;;;;;;4971642;28;20043;-51
2022/01/25 02:51:21;;;;;;;75.57;38.80;;;4.30;99.90;;;;;;4972448;28;20399;-51
2022/01/25 02:53:47;;;;;;;79.28;39.28;;;4.30;99.90;;;;;;4965877;28;20471;-48
2022/01/25 02:56:17;;;;;;;76.57;38.97;;;4.30;99.90;;;;;;4984118;28;20038;-49
2022/01/25 02:58:43;;;;;;;72.95;38.13;;;4.30;99.90;;;;;;4988555;28;20038;-49
2022/01/25 03:01:09;;;;;;;74.28;37.80;;;4.30;99.90;;;;;;4962177;28;20031;-48
2022/01/25 03:03:34;;;;;;;74.70;37.88;;;4.30;99.90;;;;;;4975911;28;20101;-48
2022/01/25 03:06:00;;;;;;;71.25;38.03;;;4.30;99.90;;;;;;4976440;28;20105;-48
2022/01/25 03:08:25;;;;;;;77.00;37.72;;;4.30;99.90;;;;;;4976394;28;20487;-49
2022/01/25 03:10:51;;;;;;;75.82;37.47;;;4.30;99.90;;;;;;4976161;28;20043;-48
2022/01/25 03:13:21;;;;;;;76.00;39.15;;;4.30;99.90;;;;;;4975724;28;20039;-48
2022/01/25 03:18:25;;;;;;;75.15;38.70;;;4.30;99.90;;;;;;4976057;28;20071;-47
2022/01/25 03:21:00;;;;;;;74.40;38.00;;;4.30;99.90;;;;;;4975467;28;20121;-49
2022/01/25 03:23:25;;;;;;;76.07;37.67;;;4.30;99.90;;;;;;4976808;28;20391;-48
2022/01/25 03:25:52;;;;;;;71.80;37.00;;;4.30;99.90;;;;;;4984995;28;20038;-48
2022/01/25 03:28:19;;;;;;;76.95;39.20;;;4.30;99.90;;;;;;4976155;28;20525;-48
2022/01/25 03:30:45;;;;;;;74.47;38.47;;;4.30;99.90;;;;;;4975499;28;20053;-49
2022/01/25 03:33:11;;;;;;;74.07;37.75;;;4.30;99.90;;;;;;4975867;28;20050;-48
2022/01/25 03:35:37;;;;;;;78.78;38.40;;;4.30;99.90;;;;;;4975217;28;20049;-48
2022/01/25 03:38:03;;;;;;;76.32;37.03;;;4.30;99.90;;;;;;4962203;28;20039;-48
2022/01/25 03:40:29;;;;;;;73.20;36.90;;;4.30;99.90;;;;;;4975638;28;20120;-50
2022/01/25 03:42:55;;;;;;;73.88;37.30;;;4.30;99.90;;;;;;4974526;28;20051;-49
2022/01/25 03:45:28;;;;;;;74.55;37.80;;;4.30;99.90;;;;;;4975454;28;20047;-49
2022/01/25 03:50:43;;;;;;;73.90;36.67;;;4.30;99.90;;;;;;4972424;28;20063;-48
2022/01/25 03:53:10;;;;;;;73.40;35.60;;;4.30;99.90;;;;;;4968313;28;20042;-48
2022/01/25 03:55:37;;;;;;;73.40;35.45;;;4.30;99.90;;;;;;4975291;28;20031;-49
2022/01/25 03:58:03;;;;;;;73.85;36.20;;;4.30;99.90;;;;;;4975295;28;20051;-48
2022/01/25 04:00:29;;;;;;;72.22;37.20;;;4.30;99.90;;;;;;4975187;28;20417;-48
2022/01/25 04:03:01;;;;;;;80.60;36.35;;;4.30;99.90;;;;;;4975643;28;20035;-48
2022/01/25 04:05:50;;;;;;;73.82;37.22;;;4.30;99.90;;;;;;4974971;28;20172;-48
2022/01/25 04:08:17;;;;;;;70.55;35.60;;;4.30;99.90;;;;;;4967323;28;20161;-48
2022/01/25 04:10:42;;;;;;;66.07;33.85;;;4.30;99.90;;;;;;4975087;28;20047;-48
2022/01/25 04:13:08;;;;;;;70.18;35.60;;;4.30;99.90;;;;;;4975001;28;20085;-48
2022/01/25 04:15:35;;;;;;;74.05;35.78;;;4.30;99.90;;;;;;4974785;28;20509;-48
2022/01/25 04:18:17;;;;;;;69.88;35.90;;;4.30;99.90;;;;;;4974821;28;20042;-49
2022/01/25 04:20:55;;;;;;;73.43;36.25;;;4.30;99.90;;;;;;4957344;28;20087;-48
2022/01/25 04:26:04;;;;;;;76.65;37.90;;;4.20;99.90;;;;;;4956649;28;20054;-49
2022/01/25 04:28:30;;;;;;;70.78;35.63;;;4.20;99.90;;;;;;4975093;28;20043;-48
2022/01/25 04:30:55;;;;;;;69.85;35.17;;;4.20;99.90;;;;;;4974944;28;20043;-49
2022/01/25 04:33:25;;;;;;;73.93;36.42;;;4.20;99.90;;;;;;4974129;28;20043;-48
2022/01/25 04:49:24;;;;;;;71.22;35.58;;;4.20;99.90;;;;;;4974536;28;20093;-49
2022/01/25 04:56:57;;;;;;;70.75;35.42;;;4.20;99.90;;;;;;4974291;28;20587;-48
2022/01/25 05:02:05;;;;;;;72.70;35.92;;;4.20;99.90;;;;;;4969160;28;20419;-50
2022/01/25 05:04:35;;;;;;;70.50;34.00;;;4.20;99.90;;;;;;4973742;28;20073;-49
2022/01/25 05:07:50;;;;;;;75.75;36.13;;;4.30;99.90;;;;;;4973561;28;20423;-49
2022/01/25 05:09:51;;;;;;;75.28;35.38;;;4.20;99.90;;;;;;4971154;28;20519;-49
2022/01/25 05:12:17;;;;;;;73.28;34.65;;;4.20;99.90;;;;;;4974009;28;20047;-50
2022/01/25 05:14:57;;;;;;;75.43;35.90;;;4.20;99.90;;;;;;4971536;28;20054;-49
2022/01/25 05:17:32;;;;;;;67.18;33.47;;;4.20;99.90;;;;;;4967014;28;20050;-50
2022/01/25 05:22:41;;;;;;;71.15;34.00;;;4.20;99.90;;;;;;4962615;28;20074;-50
2022/01/25 05:25:07;;;;;;;70.88;34.65;;;4.30;99.90;;;;;;4968020;28;20500;-49
2022/01/25 05:27:33;;;;;;;72.53;33.88;;;4.20;99.90;;;;;;4968561;28;20054;-50
2022/01/25 05:29:58;;;;;;;73.05;36.10;;;4.20;99.90;;;;;;4983966;28;20125;-50
2022/01/25 05:32:24;;;;;;;73.47;34.40;;;4.20;99.90;;;;;;5008426;28;20038;-50
2022/01/25 05:34:50;;;;;;;69.38;34.35;;;4.20;99.90;;;;;;4973460;28;20483;-49
2022/01/25 05:37:15;;;;;;;69.82;34.92;;;4.20;99.90;;;;;;4973601;28;20031;-50
2022/01/25 05:39:41;;;;;;;72.05;34.70;;;4.20;99.90;;;;;;4973515;28;20050;-50
2022/01/25 05:42:30;;;;;;;70.43;35.20;;;4.20;99.90;;;;;;4973556;28;20047;-50
2022/01/25 05:45:00;;;;;;;67.68;33.88;;;4.20;99.90;;;;;;4977666;28;20049;-50
2022/01/25 05:47:30;;;;;;;65.25;33.05;;;4.20;99.90;;;;;;4984856;28;20057;-49
2022/01/25 05:49:57;;;;;;;66.57;31.77;;;4.20;99.90;;;;;;4985863;28;20038;-50
2022/01/25 05:52:23;;;;;;;77.35;35.05;;;4.20;99.90;;;;;;4963022;28;20496;-49
2022/01/25 05:54:49;;;;;;;71.50;32.47;;;4.20;99.90;;;;;;4961671;28;20035;-51
2022/01/25 05:57:15;;;;;;;66.25;32.08;;;4.20;99.90;;;;;;4960195;28;20045;-50
2022/01/25 05:59:41;;;;;;;70.82;35.08;;;4.20;99.90;;;;;;4959261;28;20082;-51
2022/01/25 06:02:07;;;;;;;73.30;34.70;;;4.20;99.90;;;;;;4955409;28;20122;-49
2022/01/25 06:04:33;;;;;;;74.82;34.88;;;4.20;99.90;;;;;;4971174;28;20236;-50
2022/01/25 06:06:59;;;;;;;72.18;34.53;;;4.20;99.90;;;;;;4973486;28;20054;-51
2022/01/25 06:09:25;;;;;;;75.75;37.28;;;4.20;99.90;;;;;;4972556;28;20039;-51
2022/01/25 06:11:52;;;;;;;71.40;35.55;;;4.20;99.90;;;;;;4973374;28;20069;-51
2022/01/25 06:14:18;;;;;;;73.78;35.58;;;4.20;99.90;;;;;;4973965;28;20034;-53
2022/01/25 06:16:43;;;;;;;77.82;37.03;;;4.20;99.90;;;;;;4984202;28;20497;-52
2022/01/25 06:19:09;;;;;;;73.80;35.35;;;4.20;99.90;;;;;;4976842;28;20034;-50
2022/01/25 06:21:34;;;;;;;72.07;35.00;;;4.20;99.90;;;;;;4986070;28;20536;-50
2022/01/25 06:24:00;;;;;;;77.47;36.70;;;4.20;99.90;;;;;;4979312;28;20041;-50
2022/01/25 06:26:26;;;;;;;72.80;34.20;;;4.20;99.90;;;;;;4973080;28;20117;-50
2022/01/25 06:28:52;;;;;;;71.47;34.70;;;4.20;99.90;;;;;;4971682;28;20515;-50
2022/01/25 06:31:18;;;;;;;73.63;35.22;;;4.20;99.90;;;;;;4972882;28;20043;-49
2022/01/25 06:33:45;;;;;;;71.07;33.92;;;4.20;99.90;;;;;;4972682;28;20503;-50
2022/01/25 06:36:11;;;;;;;70.32;33.80;;;4.20;99.90;;;;;;4972844;28;20082;-52
2022/01/25 06:38:37;;;;;;;74.65;34.90;;;4.20;99.90;;;;;;4971839;28;20027;-51
2022/01/25 06:41:02;;;;;;;72.47;35.08;;;4.20;99.90;;;;;;4971354;28;20043;-52
2022/01/25 06:43:28;;;;;;;70.30;35.42;;;4.20;99.90;;;;;;4973327;28;20045;-51
2022/01/25 06:46:01;;;;;;;69.93;34.17;;;4.20;99.90;;;;;;4992134;28;20034;-53
2022/01/25 06:48:27;;;;;;;72.22;35.22;;;4.20;99.90;;;;;;4972161;28;20054;-52
2022/01/25 06:50:53;;;;;;;72.80;34.45;;;4.20;99.90;;;;;;4979476;28;20042;-52
2022/01/25 06:53:18;;;;;;;74.03;35.13;;;4.20;99.90;;;;;;4972034;28;20038;-52
2022/01/25 06:55:44;;;;;;;80.47;36.65;;;4.20;99.90;;;;;;4972526;28;20514;-50
2022/01/25 06:58:10;;;;;;;68.25;33.63;;;4.20;99.90;;;;;;4972146;28;20051;-52
2022/01/25 07:00:36;;;;;;;69.85;35.55;;;4.20;99.90;;;;;;4972490;28;20174;-52
2022/01/25 07:03:01;;;;;;;71.47;33.92;;;4.20;99.90;;;;;;4972075;28;20047;-53
2022/01/25 07:05:27;;;;;;;76.68;35.55;;;4.20;99.90;;;;;;5010503;23;20050;-50
2022/01/25 07:07:53;;;;;;;73.75;35.40;;;4.20;99.90;;;;;;5003216;28;20524;-50
2022/01/25 07:10:19;;;;;;;76.57;34.97;;;4.20;99.90;;;;;;5011641;28;20119;-49
2022/01/25 07:12:45;;;;;;;70.47;34.47;;;4.20;99.90;;;;;;5011818;28;20038;-50
2022/01/25 07:15:12;;;;;;;68.97;33.95;;;4.20;99.90;;;;;;5011372;28;20041;-50
2022/01/25 07:17:38;;;;;;;72.88;35.05;;;4.20;99.90;;;;;;5001031;28;20101;-47
2022/01/25 07:20:06;;;;;;;73.40;35.63;;;4.20;99.90;;;;;;4988652;28;20038;-49
2022/01/25 07:22:33;;;;;;;74.47;35.47;;;4.20;99.90;;;;;;4990718;28;20050;-47
2022/01/25 07:24:58;;;;;;;74.20;35.22;;;4.20;99.90;;;;;;4990632;28;20475;-49
2022/01/25 07:27:24;;;;;;;73.57;34.60;;;4.10;99.90;;;;;;4992041;28;20077;-49
2022/01/25 07:29:49;;;;;;;73.22;34.92;;;4.20;99.90;;;;;;4991758;28;20125;-50
2022/01/25 07:32:15;;;;;;;75.35;34.60;;;4.20;99.90;;;;;;4991693;28;20038;-51
2022/01/25 07:34:41;;;;;;;71.75;34.60;;;4.20;99.90;;;;;;4991421;28;20039;-51
2022/01/25 07:37:06;;;;;;;70.40;33.38;;;4.20;99.90;;;;;;4991459;28;20046;-49
2022/01/25 07:39:32;;;;;;;70.75;33.78;;;4.20;99.90;;;;;;4991487;28;20050;-50
2022/01/25 07:41:58;;;;;;;69.30;33.85;;;4.20;99.90;;;;;;4995504;28;20505;-50
2022/01/25 07:44:29;;;;;;;76.05;34.30;;;4.20;99.90;;;;;;4995223;28;20074;-48
2022/01/25 07:47:00;;;;;;;71.32;34.25;;;4.20;99.90;;;;;;4994730;28;20038;-48
2022/01/25 07:49:30;;;;;;;74.47;34.60;;;4.20;99.90;;;;;;4993943;28;20054;-50
2022/01/25 07:51:56;;;;;;;71.00;34.17;;;4.20;99.90;;;;;;4992830;28;20049;-51
2022/01/25 07:54:22;;;;;;;76.47;35.03;;;4.10;99.90;;;;;;4994875;28;20046;-50
2022/01/25 07:56:47;;;;;;;75.32;34.70;;;4.20;99.90;;;;;;4995199;28;20065;-47
2022/01/25 07:59:13;;;;;;;68.97;31.90;;;4.10;99.90;;;;;;4995196;28;20049;-47
2022/01/25 08:01:40;;;;;;;71.07;34.60;;;4.10;99.90;;;;;;4994846;28;20043;-47
2022/01/25 08:04:08;;;;;;;72.30;34.38;;;4.20;99.90;;;;;;4991513;28;20391;-47
2022/01/25 08:06:33;;;;;;;76.72;34.20;;;4.20;99.90;;;;;;4994778;28;20038;-49
2022/01/25 08:09:00;;;;;;;69.93;33.45;;;4.20;99.90;;;;;;4994722;28;20034;-51
2022/01/25 08:11:25;;;;;;;67.90;33.75;;;4.20;99.90;;;;;;4994868;28;20073;-50
2022/01/25 08:13:52;;;;;;;68.10;33.22;;;4.20;99.90;;;;;;4994654;28;20555;-50
2022/01/25 08:16:18;;;;;;;70.95;34.08;;;4.20;99.90;;;;;;4994666;28;20490;-50
2022/01/25 08:18:44;;;;;;;74.82;33.85;;;4.20;99.90;;;;;;4994211;28;20031;-47
2022/01/25 08:21:10;;;;;;;76.53;33.92;;;4.20;99.90;;;;;;4994779;28;20117;-50
2022/01/25 08:23:36;;;;;;;73.68;35.78;;;4.20;99.90;;;;;;4989626;28;20411;-50
2022/01/25 08:26:02;;;;;;;71.63;33.35;;;4.20;99.90;;;;;;4994420;28;20038;-48
2022/01/25 08:28:30;;;;;;;79.55;34.58;;;4.20;99.90;;;;;;4993253;28;20038;-47
2022/01/25 08:30:56;;;;;;;78.97;34.55;;;4.20;99.90;;;;;;4992974;28;20054;-47
2022/01/25 08:33:21;;;;;;;74.28;34.55;;;4.20;99.90;;;;;;4994169;28;20146;-47
2022/01/25 08:35:47;;;;;;;75.15;35.25;;;4.20;99.90;;;;;;4994268;28;20038;-51
2022/01/25 08:38:12;;;;;;;79.65;34.83;;;4.20;99.90;;;;;;4994149;28;20206;-52
2022/01/25 08:40:38;;;;;;;81.22;35.65;;;4.20;99.90;;;;;;4994387;28;20073;-52
2022/01/25 08:43:03;;;;;;;74.40;35.30;;;4.20;99.90;;;;;;4995333;28;20481;-50
2022/01/25 08:45:29;;;;;;;78.65;35.47;;;4.20;99.90;;;;;;4992857;28;20549;-48
2022/01/25 08:47:55;;;;;;;80.97;35.20;;;4.20;99.90;;;;;;4994402;28;20072;-51
2022/01/25 08:50:21;;;;;;;73.93;35.45;;;4.20;99.90;;;;;;4993977;28;20038;-51
2022/01/25 08:52:46;;;;;;;73.25;35.03;;;4.20;99.90;;;;;;4993798;28;20077;-53
2022/01/25 08:55:12;;;;;;;74.13;35.03;;;4.20;99.90;;;;;;4994641;28;20057;-52
2022/01/25 08:57:38;;;;;;;77.28;35.13;;;4.20;99.90;;;;;;4994774;28;20037;-52
2022/01/25 09:00:06;;;;;;;76.03;35.15;;;4.20;99.90;;;;;;4993512;28;20046;-52
2022/01/25 09:02:32;;;;;;;73.63;34.67;;;4.20;99.90;;;;;;4992896;28;20054;-52
2022/01/25 09:04:57;;;;;;;78.90;35.13;;;4.20;99.90;;;;;;4992187;28;20038;-54
2022/01/25 09:07:23;;;;;;;75.70;34.40;;;4.30;99.90;;;;;;4995316;28;20334;-51
2022/01/25 09:09:48;;;;;;;73.60;33.53;;;4.30;99.90;;;;;;4997697;28;20047;-51
2022/01/25 09:12:14;;;;;;;78.72;35.35;;;4.30;99.90;;;;;;4980316;28;20034;-50
2022/01/25 09:14:40;;;;;;;78.13;36.03;;;4.30;99.90;;;;;;4996065;28;20089;-54
2022/01/25 09:17:10;;;;;;;73.03;33.78;;;4.30;99.90;;;;;;4979626;28;20073;-48
2022/01/25 09:19:38;;;;;;;72.60;33.75;;;4.40;99.90;;;;;;4995023;28;20053;-53
2022/01/25 09:22:08;;;;;;;71.47;33.30;;;4.30;99.90;;;;;;4989652;28;20046;-53
2022/01/25 09:24:34;;;;;;;77.05;36.03;;;4.30;99.90;;;;;;4977097;28;20047;-50
2022/01/25 09:27:02;;;;;;;77.43;35.47;;;4.30;99.90;;;;;;4977587;28;20038;-51
2022/01/25 09:29:27;;;;;;;77.18;36.00;;;4.30;99.90;;;;;;4977938;28;20118;-52
2022/01/25 09:31:53;;;;;;;80.93;35.80;;;4.30;99.90;;;;;;4976098;28;20486;-51
2022/01/25 09:34:20;;;;;;;77.57;33.70;;;4.30;99.90;;;;;;4977549;28;20045;-50
2022/01/25 09:36:45;;;;;;;73.75;34.28;;;4.30;99.90;;;;;;4975941;28;20055;-49
2022/01/25 09:39:11;;;;;;;75.57;35.50;;;4.40;99.90;;;;;;4977176;28;20050;-50
2022/01/25 09:41:36;;;;;;;73.55;34.67;;;4.40;99.90;;;;;;4963793;28;20070;-49
2022/01/25 09:44:02;;;;;;;74.63;34.05;;;4.40;99.90;;;;;;4976977;28;20129;-50
2022/01/25 09:46:28;;;;;;;78.10;35.95;;;4.30;99.90;;;;;;4975069;28;20054;-50
2022/01/25 09:48:53;;;;;;;80.15;36.53;;;4.40;99.90;;;;;;4978729;28;20042;-49
2022/01/25 09:51:20;;;;;;;81.00;36.13;;;4.40;99.90;;;;;;4994072;28;20038;-51
2022/01/25 09:53:46;;;;;;;74.88;34.45;;;4.40;99.90;;;;;;4993096;28;20116;-50
2022/01/25 09:56:11;;;;;;;70.95;34.53;;;4.40;99.90;;;;;;4993045;28;20506;-50
2022/01/25 09:58:37;;;;;;;83.95;36.10;;;4.40;99.90;;;;;;4993384;28;20038;-50
2022/01/25 10:01:05;;;;;;;78.22;35.35;;;4.40;99.90;;;;;;4994249;28;20038;-50
2022/01/25 10:03:36;;;;;;;72.00;34.50;;;4.40;99.90;;;;;;4992407;28;20050;-50
2022/01/25 10:06:03;;;;;;;79.97;35.70;;;4.40;99.90;;;;;;4992738;28;20049;-50
2022/01/25 10:08:35;;;;;;;79.88;34.25;;;4.40;99.90;;;;;;4992976;28;20065;-49
2022/01/25 10:11:11;;;;;;;74.00;34.92;;;4.50;99.90;;;;;;4992246;28;20043;-50
2022/01/25 10:13:39;;;;;;;76.47;35.25;;;4.50;99.90;;;;;;4992730;28;20120;-50
2022/01/25 10:16:17;;;;;;;73.13;35.85;;;4.50;99.90;;;;;;4992675;28;20038;-49
2022/01/25 10:18:51;;;;;;;72.05;33.60;;;4.50;99.90;;;;;;4992734;28;20049;-50
2022/01/25 10:21:30;;;;;;;74.95;34.22;;;4.50;99.90;;;;;;4992512;28;20065;-50
2022/01/25 10:23:59;;;;;;;77.00;34.60;;;4.50;99.90;;;;;;4975033;28;20121;-50
2022/01/25 10:26:25;;;;;;;72.15;34.72;;;4.50;99.90;;;;;;4992431;28;20096;-50
2022/01/25 10:28:51;;;;;;;72.20;33.45;;;4.50;99.90;;;;;;4992366;28;20044;-50
2022/01/25 10:31:17;;;;;;;78.22;35.45;;;4.50;99.90;;;;;;4992558;28;20046;-51
2022/01/25 10:33:52;;;;;;;76.53;36.30;;;4.50;99.90;;;;;;4990970;28;20498;-51
2022/01/25 10:36:22;;;;;;;73.32;34.58;;;4.50;99.90;;;;;;4992211;28;20455;-51
2022/01/25 10:38:52;;;;;;;77.10;36.17;;;4.50;99.90;;;;;;4991966;28;20034;-50
2022/01/25 10:41:20;;;;;;;72.80;33.78;;;4.50;99.90;;;;;;4974562;28;20453;-51
2022/01/25 10:43:48;;;;;;;71.13;32.50;;;4.50;99.90;;;;;;4992066;28;20082;-51
2022/01/25 10:46:29;;;;;;;72.30;33.83;;;4.50;99.90;;;;;;4991416;28;20101;-52
2022/01/25 10:48:58;;;;;;;76.78;35.15;;;4.50;99.90;;;;;;4992190;28;20059;-50
2022/01/25 10:51:38;;;;;;;69.80;33.25;;;4.60;99.90;;;;;;4992190;28;20038;-52
2022/01/25 10:54:03;;;;;;;72.50;33.28;;;4.60;99.90;;;;;;4992181;28;20078;-51
2022/01/25 10:56:39;;;;;;;74.32;34.60;;;4.60;99.90;;;;;;4990859;28;20078;-49
2022/01/25 10:59:07;;;;;;;77.72;35.28;;;4.60;99.90;;;;;;4990967;28;20389;-51
2022/01/25 11:01:35;;;;;;;80.35;35.38;;;4.70;99.90;;;;;;4991574;28;20437;-52
2022/01/25 11:04:11;;;;;;;74.22;35.03;;;4.60;99.90;;;;;;4990674;28;20137;-49
2022/01/25 11:06:37;;;;;;;72.53;34.78;;;4.60;99.90;;;;;;4992008;28;20573;-51
2022/01/25 11:09:06;;;;;;;72.85;34.53;;;4.60;99.90;;;;;;4991954;28;20137;-51
2022/01/25 11:11:37;;;;;;;77.68;35.00;;;4.60;99.90;;;;;;4990862;28;20056;-49
2022/01/25 11:16:49;;;;;;;76.55;33.33;;;4.70;99.90;;;;;;4994232;28;20129;-50
2022/01/25 11:19:16;;;;;;;75.75;34.60;;;4.70;99.90;;;;;;4995790;28;20063;-51
2022/01/25 11:21:45;;;;;;;79.35;34.50;;;4.70;99.90;;;;;;4978157;28;20042;-51
2022/01/25 11:24:12;;;;;;;77.38;35.40;;;4.70;99.90;;;;;;4995313;28;20042;-52
2022/01/25 11:26:40;;;;;;;72.72;33.20;;;4.70;99.90;;;;;;4995939;28;20104;-51
2022/01/25 11:29:07;;;;;;;74.32;35.00;;;4.70;99.90;;;;;;4995545;28;20069;-51
2022/01/25 11:31:34;;;;;;;72.38;35.05;;;4.70;99.90;;;;;;4995512;28;20165;-51
2022/01/25 11:34:00;;;;;;;71.53;34.88;;;4.70;99.90;;;;;;4995539;28;20053;-53
2022/01/25 11:36:25;;;;;;;76.53;34.15;;;4.70;99.90;;;;;;4995375;28;20039;-51
2022/01/25 11:38:53;;;;;;;71.65;32.83;;;4.70;99.90;;;;;;4995352;28;20046;-52
2022/01/25 11:41:23;;;;;;;76.55;35.53;;;4.70;99.90;;;;;;4995068;28;20038;-51
2022/01/25 11:44:18;;;;;;;77.63;33.85;;;4.70;99.90;;;;;;4995364;28;20042;-51
2022/01/25 11:46:50;;;;;;;86.05;35.60;;;4.70;99.90;;;;;;4995270;28;20043;-51
2022/01/25 11:49:21;;;;;;;75.40;35.08;;;4.70;99.90;;;;;;4995370;28;20042;-53
2022/01/25 11:52:14;;;;;;;75.70;34.38;;;4.70;99.90;;;;;;4994992;28;20383;-51
2022/01/25 11:54:42;;;;;;;74.40;33.25;;;4.70;99.90;;;;;;4977708;28;20042;-51
2022/01/25 11:57:10;;;;;;;71.03;32.92;;;4.70;99.90;;;;;;4993448;28;20088;-51
2022/01/25 11:59:37;;;;;;;72.15;34.05;;;4.70;99.90;;;;;;4994805;28;20057;-51
2022/01/25 12:02:03;;;;;;;77.50;34.53;;;4.70;99.90;;;;;;4995193;28;20042;-50
2022/01/25 12:04:30;;;;;;;74.00;34.05;;;4.70;99.90;;;;;;4994994;28;20470;-53
2022/01/25 12:07:08;;;;;;;69.50;33.60;;;4.80;99.90;;;;;;4994837;28;20177;-51
2022/01/25 12:09:48;;;;;;;74.18;33.30;;;4.70;99.90;;;;;;4993178;28;20117;-50
2022/01/25 12:12:15;;;;;;;74.55;33.47;;;4.80;99.90;;;;;;4982472;28;20042;-53
2022/01/25 12:14:51;;;;;;;76.25;33.28;;;4.70;99.90;;;;;;4993526;28;20065;-50
2022/01/25 12:17:20;;;;;;;75.20;32.80;;;4.80;99.90;;;;;;4993527;28;20043;-50
2022/01/25 12:20:00;;;;;;;70.38;32.63;;;4.80;99.90;;;;;;4994683;28;20169;-51
2022/01/25 12:22:39;;;;;;;76.70;33.70;;;4.80;99.90;;;;;;4994504;28;20058;-51
2022/01/25 12:28:07;;;;;;;76.13;34.17;;;4.80;99.90;;;;;;4993780;28;20050;-49
2022/01/25 12:30:41;;;;;;;79.15;34.45;;;4.80;99.90;;;;;;4994611;28;20046;-51
2022/01/25 12:33:18;;;;;;;74.07;32.83;;;4.70;99.90;;;;;;4994508;28;20092;-51
2022/01/25 12:36:07;;;;;;;76.07;34.75;;;4.80;99.90;;;;;;4994334;28;20035;-51
2022/01/25 12:38:38;;;;;;;76.97;32.30;;;4.80;99.90;;;;;;4994531;28;20048;-54
2022/01/25 12:41:31;;;;;;;68.53;32.05;;;4.70;99.90;;;;;;4994386;28;20416;-51
2022/01/25 12:44:04;;;;;;;70.18;32.45;;;4.70;99.90;;;;;;4985879;28;20058;-52
2022/01/25 12:46:40;;;;;;;73.43;34.17;;;4.70;99.90;;;;;;4994582;28;20038;-52
2022/01/25 12:49:11;;;;;;;72.65;33.15;;;4.70;99.90;;;;;;4993516;28;20690;-51
2022/01/25 12:51:39;;;;;;;75.07;34.30;;;4.70;99.90;;;;;;4993124;28;20478;-51
2022/01/25 12:54:07;;;;;;;74.82;33.05;;;4.70;99.90;;;;;;4993417;28;20034;-54
2022/01/25 12:56:36;;;;;;;72.55;32.92;;;4.70;99.90;;;;;;4994235;28;20081;-54
2022/01/25 12:59:09;;;;;;;73.53;32.95;;;4.70;99.90;;;;;;4994114;28;20117;-51
2022/01/25 13:01:37;;;;;;;72.00;32.13;;;4.70;99.90;;;;;;4976795;28;20034;-53
2022/01/25 13:04:06;;;;;;;73.30;32.72;;;4.70;99.90;;;;;;4993810;28;20088;-52
2022/01/25 13:06:33;;;;;;;75.45;33.08;;;4.60;99.90;;;;;;5019712;23;20409;-49
2022/01/25 13:09:09;;;;;;;75.90;33.05;;;4.70;99.90;;;;;;4980237;28;20043;-49
2022/01/25 13:11:57;;;;;;;70.78;31.88;;;4.60;99.90;;;;;;4974285;28;20101;-49
2022/01/25 13:17:16;;;;;;;67.47;31.20;;;4.60;99.90;;;;;;4974124;28;20050;-49
2022/01/25 13:19:56;;;;;;;76.13;32.30;;;4.70;99.90;;;;;;4983978;28;20088;-50
2022/01/25 13:22:24;;;;;;;67.28;32.45;;;4.70;99.90;;;;;;4993218;28;20038;-49
2022/01/25 13:25:13;;;;;;;72.55;31.80;;;4.80;99.90;;;;;;4993100;28;20046;-49
2022/01/25 13:27:52;;;;;;;69.57;33.03;;;4.80;99.90;;;;;;4993374;28;20042;-49
2022/01/25 13:30:46;;;;;;;72.32;32.47;;;4.80;99.90;;;;;;4992033;28;20081;-48
2022/01/25 13:33:13;;;;;;;71.68;31.33;;;4.80;99.90;;;;;;4993032;28;20082;-49
2022/01/25 13:35:41;;;;;;;69.35;30.88;;;4.80;99.90;;;;;;4985498;28;20038;-49
2022/01/25 13:38:10;;;;;;;78.03;31.75;;;4.80;99.90;;;;;;4992771;28;20117;-52
2022/01/25 13:40:51;;;;;;;72.13;31.70;;;4.70;99.90;;;;;;4993047;28;20053;-49
2022/01/25 13:46:30;;;;;;;73.43;31.70;;;4.80;99.90;;;;;;4989757;28;20073;-49
2022/01/25 13:49:13;;;;;;;77.50;32.55;;;4.70;99.90;;;;;;4992341;28;20409;-51
2022/01/25 13:51:53;;;;;;;74.68;32.97;;;4.70;99.90;;;;;;4991933;28;20598;-48
2022/01/25 13:54:22;;;;;;;71.10;32.55;;;4.70;99.90;;;;;;4992741;28;20046;-48
2022/01/25 13:56:48;;;;;;;64.05;30.65;;;4.70;99.90;;;;;;4992820;28;20070;-50
2022/01/25 13:59:15;;;;;;;79.82;33.53;;;4.70;99.90;;;;;;4992798;28;20077;-49
2022/01/25 14:01:42;;;;;;;71.95;31.95;;;4.80;99.90;;;;;;4992666;28;20042;-48
2022/01/25 14:04:18;;;;;;;72.72;31.10;;;4.80;99.90;;;;;;4991343;28;20030;-50
2022/01/25 14:06:52;;;;;;;73.28;32.47;;;4.70;99.90;;;;;;4992321;28;20042;-51
2022/01/25 14:09:28;;;;;;;68.07;31.40;;;4.70;99.90;;;;;;4991534;28;20134;-51
2022/01/25 14:21:39;;;;;;;67.28;31.75;;;4.80;99.90;;;;;;4984669;28;20046;-49
2022/01/25 14:26:04;;;;;;;70.75;31.25;;;4.70;99.90;;;;;;4987735;28;20096;-52
2022/01/25 14:28:32;;;;;;;70.10;30.75;;;4.70;99.90;;;;;;4992338;28;20042;-49
2022/01/25 14:30:58;;;;;;;72.53;31.95;;;4.70;99.90;;;;;;4983648;28;20056;-49
2022/01/25 14:33:29;;;;;;;75.25;31.08;;;4.70;99.90;;;;;;4982949;28;20035;-50
2022/01/25 14:36:00;;;;;;;64.47;29.65;;;4.70;99.90;;;;;;4989052;28;20033;-48
2022/01/25 14:38:34;;;;;;;71.13;30.58;;;4.80;99.90;;;;;;4991575;28;20080;-49
2022/01/25 14:41:03;;;;;;;72.28;30.30;;;4.80;99.90;;;;;;4991725;28;20498;-49